createdAt,value
2023-05-08T06:04:46.698Z,9.78
2023-05-08T06:05:50.967Z,9.86
2023-05-08T06:06:52.949Z,9.92
2023-05-08T06:07:55.089Z,10.00
2023-05-08T06:08:59.160Z,10.06
2023-05-08T06:10:01.397Z,10.14
2023-05-08T06:11:03.717Z,10.23
2023-05-08T06:12:05.796Z,10.32
2023-05-08T06:13:08.050Z,10.42
2023-05-08T06:14:10.130Z,10.51
2023-05-08T06:15:13.356Z,10.57
2023-05-08T06:16:15.932Z,10.62
2023-05-08T06:17:17.993Z,10.71
2023-05-08T06:18:20.820Z,10.76
2023-05-08T06:19:23.602Z,10.79
2023-05-08T06:20:26.493Z,10.82
2023-05-08T06:21:29.372Z,10.87
2023-05-08T06:22:31.481Z,10.92
2023-05-08T06:23:33.598Z,11.00
2023-05-08T06:24:35.851Z,11.09
2023-05-08T06:25:40.548Z,11.18
2023-05-08T06:26:42.832Z,11.29
2023-05-08T06:27:44.920Z,11.40
2023-05-08T06:28:47.084Z,11.42
2023-05-08T06:29:49.954Z,11.49
2023-05-08T06:30:52.449Z,11.51
2023-05-08T06:31:54.689Z,11.53
2023-05-08T06:32:56.920Z,11.57
2023-05-08T06:33:59.570Z,11.65
2023-05-08T06:35:01.950Z,11.73
2023-05-08T06:36:08.878Z,11.82
2023-05-08T06:37:11.348Z,11.84
2023-05-08T06:38:13.654Z,11.86
2023-05-08T06:39:15.777Z,11.86
2023-05-08T06:40:18.032Z,11.86
2023-05-08T06:41:20.115Z,11.91
2023-05-08T06:42:22.156Z,12.01
2023-05-08T06:43:25.450Z,11.95
2023-05-08T06:44:27.746Z,12.00
2023-05-08T06:45:30.218Z,11.99
2023-05-08T06:46:32.419Z,12.03
2023-05-08T06:47:34.826Z,12.09
2023-05-08T06:48:37.150Z,12.09
2023-05-08T06:49:39.254Z,12.09
2023-05-08T06:50:41.322Z,12.08
2023-05-08T06:51:43.465Z,12.15
2023-05-08T06:52:45.471Z,12.23
2023-05-08T06:53:48.496Z,12.27
2023-05-08T06:54:50.784Z,12.28
2023-05-08T06:55:52.816Z,12.18
2023-05-08T06:56:55.178Z,12.06
2023-05-08T06:57:57.248Z,12.08
2023-05-08T06:59:07.653Z,12.12
2023-05-08T07:01:19.078Z,12.19
2023-05-08T07:02:24.968Z,12.13
2023-05-08T07:03:30.191Z,12.18
2023-05-08T07:04:32.381Z,12.25
2023-05-08T07:05:36.464Z,12.34
2023-05-08T07:06:42.110Z,12.39
2023-05-08T07:07:47.664Z,12.44
2023-05-08T07:10:15.958Z,12.42
2023-05-08T07:11:24.396Z,12.45
2023-05-08T07:12:29.896Z,12.43
2023-05-08T07:13:38.921Z,12.38
2023-05-08T07:14:44.979Z,12.33
2023-05-08T07:17:16.476Z,12.28
2023-05-08T07:18:21.022Z,12.25
2023-05-08T07:19:26.490Z,12.24
2023-05-08T07:20:30.282Z,12.29
2023-05-08T07:21:32.594Z,12.34
2023-05-08T07:24:03.653Z,12.45
2023-05-08T07:25:08.033Z,12.41
2023-05-08T07:26:10.082Z,12.40
2023-05-08T07:27:15.383Z,12.42
2023-05-08T07:28:17.630Z,12.40
2023-05-08T07:29:19.693Z,12.45
2023-05-08T07:30:22.163Z,12.50
2023-05-08T07:31:24.349Z,12.50
2023-05-08T07:32:26.516Z,12.53
2023-05-08T07:33:28.614Z,12.49
2023-05-08T07:34:32.498Z,12.44
2023-05-08T07:35:34.769Z,12.39
2023-05-08T07:36:39.297Z,12.37
2023-05-08T07:37:41.654Z,12.33
2023-05-08T07:38:43.715Z,12.31
2023-05-08T07:39:45.763Z,12.38
2023-05-08T07:40:47.824Z,12.43
2023-05-08T07:41:50.183Z,12.43
2023-05-08T07:45:28.528Z,12.45
2023-05-08T07:46:30.829Z,12.49
2023-05-08T07:47:33.003Z,12.48
2023-05-08T07:48:35.252Z,12.55
2023-05-08T07:49:37.332Z,12.60
2023-05-08T07:50:39.459Z,12.63
2023-05-08T07:51:41.620Z,12.67
2023-05-08T07:52:43.714Z,12.63
2023-05-08T07:53:45.764Z,12.66
2023-05-08T07:54:47.790Z,12.66
2023-05-08T07:55:49.800Z,12.73
2023-05-08T07:56:51.931Z,12.77
2023-05-08T07:57:54.201Z,12.82
2023-05-08T07:58:56.388Z,12.81
2023-05-08T08:00:04.346Z,12.85
2023-05-08T08:01:11.118Z,12.92
2023-05-08T08:06:41.125Z,12.96
2023-05-08T08:07:43.207Z,12.93
2023-05-08T08:08:45.532Z,12.92
2023-05-08T08:09:47.634Z,12.92
2023-05-08T08:10:50.174Z,12.96
2023-05-08T08:11:52.179Z,12.90
2023-05-08T08:12:55.711Z,12.90
2023-05-08T08:13:58.004Z,12.85
2023-05-08T08:14:59.944Z,12.80
2023-05-08T08:16:02.144Z,12.78
2023-05-08T08:17:04.266Z,12.80
2023-05-08T08:18:06.394Z,12.87
2023-05-08T08:19:08.674Z,12.99
2023-05-08T08:20:12.883Z,13.09
2023-05-08T08:21:14.942Z,13.23
2023-05-08T08:22:16.943Z,13.35
2023-05-08T08:23:19.205Z,13.45
2023-05-08T08:24:21.164Z,13.60
2023-05-08T08:25:25.387Z,13.70
2023-05-08T08:26:27.949Z,13.80
2023-05-08T08:27:30.090Z,13.89
2023-05-08T08:28:32.193Z,13.86
2023-05-08T08:29:34.300Z,13.81
2023-05-08T08:30:36.372Z,13.91
2023-05-08T08:31:38.613Z,13.99
2023-05-08T08:32:41.246Z,14.03
2023-05-08T08:33:43.445Z,14.00
2023-05-08T08:34:45.697Z,14.02
2023-05-08T08:35:47.727Z,14.03
2023-05-08T08:36:49.829Z,14.09
2023-05-08T08:37:52.026Z,14.09
2023-05-08T08:38:54.249Z,13.95
2023-05-08T08:39:56.733Z,13.98
2023-05-08T08:40:59.095Z,13.99
2023-05-08T08:42:05.492Z,13.99
2023-05-08T08:43:09.742Z,13.92
2023-05-08T08:44:11.809Z,13.85
2023-05-08T08:45:14.098Z,13.85
2023-05-08T08:46:16.878Z,13.89
2023-05-08T08:47:19.297Z,13.87
2023-05-08T08:48:21.655Z,13.80
2023-05-08T08:49:30.620Z,13.81
2023-05-08T08:50:33.093Z,13.82
2023-05-08T08:51:58.638Z,13.85
2023-05-08T08:54:30.159Z,13.90
2023-05-08T08:55:32.429Z,13.76
2023-05-08T08:56:36.324Z,13.67
2023-05-08T08:57:41.347Z,13.58
2023-05-08T08:59:01.995Z,13.52
2023-05-08T09:00:22.980Z,13.47
2023-05-08T09:01:25.664Z,13.45
2023-05-08T09:02:27.884Z,13.41
2023-05-08T09:03:31.288Z,13.40
2023-05-08T09:04:33.606Z,13.38
2023-05-08T09:05:35.682Z,13.36
2023-05-08T09:06:38.014Z,13.31
2023-05-08T09:07:40.174Z,13.21
2023-05-08T09:09:23.366Z,13.20
2023-05-08T09:10:38.838Z,13.21
2023-05-08T09:11:41.093Z,13.23
2023-05-08T09:12:43.442Z,13.26
2023-05-08T09:13:45.760Z,13.33
2023-05-08T09:14:47.883Z,13.42
2023-05-08T09:15:50.223Z,13.49
2023-05-08T09:18:03.101Z,13.77
2023-05-08T09:19:06.185Z,13.73
2023-05-08T09:20:12.247Z,13.77
2023-05-08T09:21:14.634Z,13.77
2023-05-08T09:22:17.283Z,13.79
2023-05-08T09:23:19.324Z,13.81
2023-05-08T09:24:21.412Z,13.82
2023-05-08T09:25:23.429Z,13.85
2023-05-08T09:26:35.839Z,13.89
2023-05-08T09:27:38.209Z,13.94
2023-05-08T09:30:07.008Z,14.01
2023-05-08T09:31:09.293Z,13.98
2023-05-08T09:33:20.299Z,14.24
2023-05-08T09:35:35.998Z,14.45
2023-05-08T09:36:38.205Z,14.43
2023-05-08T09:37:41.920Z,14.47
2023-05-08T09:38:44.145Z,14.49
2023-05-08T09:39:46.310Z,14.52
2023-05-08T09:40:52.088Z,14.56
2023-05-08T09:41:58.801Z,14.57
2023-05-08T09:43:04.738Z,14.42
2023-05-08T09:44:06.842Z,14.45
2023-05-08T09:45:11.211Z,14.42
2023-05-08T09:46:22.535Z,14.38
2023-05-08T09:47:25.249Z,14.35
2023-05-08T09:48:37.269Z,14.30
2023-05-08T09:49:40.087Z,14.34
2023-05-08T09:50:43.627Z,14.32
2023-05-08T09:51:52.824Z,14.39
2023-05-08T09:52:56.919Z,14.40
2023-05-08T09:53:59.080Z,14.44
2023-05-08T09:55:03.857Z,14.49
2023-05-08T09:56:06.479Z,14.51
2023-05-08T09:57:11.793Z,14.59
2023-05-08T09:58:13.889Z,14.69
2023-05-08T09:59:23.673Z,14.75
2023-05-08T10:00:27.336Z,14.76
2023-05-08T10:01:34.201Z,14.72
2023-05-08T10:02:37.461Z,14.74
2023-05-08T10:05:32.180Z,14.69
2023-05-08T10:06:34.767Z,14.62
2023-05-08T10:07:36.787Z,14.52
2023-05-08T10:08:38.926Z,14.58
2023-05-08T10:09:50.764Z,14.60
2023-05-08T10:10:46.998Z,14.66
2023-05-08T10:11:49.990Z,14.68
2023-05-08T10:12:52.985Z,14.67
2023-05-08T10:13:55.360Z,14.66
2023-05-08T10:16:07.587Z,14.77
2023-05-08T10:17:09.728Z,14.63
2023-05-08T10:18:15.883Z,14.51
2023-05-08T10:19:20.342Z,14.42
2023-05-08T10:20:22.527Z,14.44
2023-05-08T10:21:28.601Z,14.44
2023-05-08T10:22:30.755Z,14.40
2023-05-08T10:23:34.116Z,14.40
2023-05-08T10:24:38.059Z,14.36
2023-05-08T10:25:43.135Z,14.39
2023-05-08T10:27:06.271Z,14.43
2023-05-08T10:28:10.460Z,14.44
2023-05-08T10:30:24.962Z,14.56
2023-05-08T10:31:33.863Z,14.45
2023-05-08T10:33:46.849Z,14.54
2023-05-08T10:34:53.273Z,14.44
2023-05-08T10:35:55.554Z,14.48
2023-05-08T10:36:57.697Z,14.50
2023-05-08T10:37:59.872Z,14.51
2023-05-08T10:39:01.881Z,14.56
2023-05-08T10:40:06.280Z,14.51
2023-05-08T10:41:09.320Z,14.55
2023-05-08T10:42:14.550Z,14.59
2023-05-08T10:43:16.752Z,14.47
2023-05-08T10:44:18.754Z,14.54
2023-05-08T10:45:20.765Z,14.58
2023-05-08T10:46:29.741Z,14.54
2023-05-08T10:47:55.748Z,14.60
2023-05-08T10:49:02.019Z,14.69
2023-05-08T10:50:07.916Z,14.65
2023-05-08T10:51:19.990Z,14.64
2023-05-08T10:52:33.482Z,14.70
2023-05-08T10:53:47.811Z,14.68
2023-05-08T10:55:18.114Z,14.57
2023-05-08T10:56:28.087Z,14.61
2023-05-08T10:57:30.756Z,14.64
2023-05-08T10:58:33.667Z,14.61
2023-05-08T10:59:36.157Z,14.57
2023-05-08T11:01:00.256Z,14.61
2023-05-08T11:02:06.813Z,14.63
2023-05-08T11:03:20.043Z,14.60
2023-05-08T11:04:20.449Z,14.59
2023-05-08T11:05:24.509Z,14.51
2023-05-08T11:06:44.167Z,14.54
2023-05-08T11:07:56.702Z,14.54
2023-05-08T11:09:00.650Z,14.59
2023-05-08T11:10:07.361Z,14.64
2023-05-08T11:11:23.124Z,14.71
2023-05-08T11:12:26.216Z,14.76
2023-05-08T11:13:43.093Z,14.80
2023-05-08T11:15:01.731Z,14.81
2023-05-08T11:16:08.320Z,14.80
2023-05-08T11:17:10.988Z,14.80
2023-05-08T11:18:15.920Z,14.85
2023-05-08T11:19:18.859Z,14.88
2023-05-08T11:20:29.171Z,14.90
2023-05-08T11:21:32.486Z,14.89
2023-05-08T11:22:37.402Z,14.93
2023-05-08T11:23:39.566Z,14.90
2023-05-08T11:24:57.593Z,14.90
2023-05-08T11:26:05.543Z,14.81
2023-05-08T11:27:08.330Z,14.82
2023-05-08T11:28:11.195Z,14.76
2023-05-08T11:29:16.966Z,14.71
2023-05-08T11:30:26.029Z,14.72
2023-05-08T11:31:49.322Z,14.66
2023-05-08T11:38:27.256Z,15.02
2023-05-08T11:39:29.643Z,14.95
2023-05-08T11:40:48.688Z,14.97
2023-05-08T11:41:51.098Z,15.00
2023-05-08T11:42:56.371Z,14.98
2023-05-08T11:44:04.842Z,14.98
2023-05-08T11:45:15.015Z,14.96
2023-05-08T11:46:18.954Z,15.00
2023-05-08T11:47:21.023Z,14.98
2023-05-08T11:48:25.001Z,15.03
2023-05-08T11:49:29.770Z,14.97
2023-05-08T11:50:31.037Z,15.02
2023-05-08T11:51:33.125Z,15.03
2023-05-08T11:52:36.423Z,14.98
2023-05-08T11:53:40.836Z,15.03
2023-05-08T11:54:43.092Z,15.05
2023-05-08T11:55:49.015Z,15.05
2023-05-08T11:56:53.956Z,15.03
2023-05-08T11:57:56.145Z,14.97
2023-05-08T11:59:05.850Z,14.99
2023-05-08T12:00:12.002Z,14.92
2023-05-08T12:01:19.807Z,14.80
2023-05-08T12:02:36.585Z,14.78
2023-05-08T12:03:39.054Z,14.79
2023-05-08T12:04:45.351Z,14.82
2023-05-08T12:05:49.342Z,14.77
2023-05-08T12:06:51.614Z,14.77
2023-05-08T12:07:54.157Z,14.85
2023-05-08T12:09:01.015Z,14.86
2023-05-08T12:10:05.007Z,14.91
2023-05-08T12:11:07.084Z,14.93
2023-05-08T12:12:09.394Z,14.95
2023-05-08T12:13:24.127Z,14.89
2023-05-08T12:14:26.522Z,14.96
2023-05-08T12:16:58.924Z,15.05
2023-05-08T12:18:01.645Z,14.96
2023-05-08T12:19:05.856Z,14.93
2023-05-08T12:20:17.217Z,14.90
2023-05-08T12:21:20.583Z,14.90
2023-05-08T12:22:22.660Z,14.89
2023-05-08T12:23:26.362Z,14.91
2023-05-08T12:24:28.711Z,14.93
2023-05-08T12:25:33.444Z,14.94
2023-05-08T12:26:36.385Z,14.98
2023-05-08T12:27:38.652Z,14.98
2023-05-08T12:29:51.181Z,15.07
2023-05-08T12:30:53.558Z,15.04
2023-05-08T12:31:55.650Z,15.02
2023-05-08T12:32:57.782Z,15.01
2023-05-08T12:34:00.579Z,15.02
2023-05-08T12:35:02.711Z,15.05
2023-05-08T12:36:06.604Z,15.06
2023-05-08T12:37:08.726Z,15.15
2023-05-08T12:38:10.726Z,15.19
2023-05-08T12:39:17.022Z,15.24
2023-05-08T12:40:27.063Z,15.26
2023-05-08T12:41:29.459Z,15.33
2023-05-08T12:42:49.820Z,15.38
2023-05-08T12:43:52.043Z,15.42
2023-05-08T12:44:54.359Z,15.43
2023-05-08T12:45:56.475Z,15.38
2023-05-08T12:46:58.997Z,15.39
2023-05-08T12:48:07.149Z,15.35
2023-05-08T12:49:09.415Z,15.32
2023-05-08T12:50:14.390Z,15.25
2023-05-08T12:51:17.110Z,15.24
2023-05-08T12:52:19.490Z,15.18
2023-05-08T12:53:21.501Z,15.18
2023-05-08T12:54:36.458Z,15.19
2023-05-08T12:55:40.258Z,15.20
2023-05-08T12:56:43.243Z,15.25
2023-05-08T12:57:45.557Z,15.29
2023-05-08T12:58:47.766Z,15.37
2023-05-08T12:59:51.648Z,15.44
2023-05-08T13:01:07.569Z,15.39
2023-05-08T13:02:17.604Z,15.42
2023-05-08T13:03:24.786Z,15.39
2023-05-08T13:04:29.504Z,15.39
2023-05-08T13:05:35.032Z,15.34
2023-05-08T13:06:39.017Z,15.18
2023-05-08T13:07:41.032Z,15.13
2023-05-08T13:08:43.484Z,15.10
2023-05-08T13:09:59.500Z,15.09
2023-05-08T13:11:04.384Z,15.08
2023-05-08T13:12:08.383Z,15.12
2023-05-08T13:13:10.664Z,15.19
2023-05-08T13:14:13.201Z,15.19
2023-05-08T13:15:15.645Z,15.14
2023-05-08T13:16:19.024Z,15.12
2023-05-08T13:17:39.673Z,15.11
2023-05-08T13:18:55.772Z,15.11
2023-05-08T13:19:57.798Z,15.13
2023-05-08T13:20:59.954Z,15.11
2023-05-08T13:22:02.154Z,15.11
2023-05-08T13:23:05.082Z,15.13
2023-05-08T13:24:07.521Z,15.07
2023-05-08T13:25:09.552Z,15.01
2023-05-08T13:26:11.685Z,14.97
2023-05-08T13:27:13.787Z,14.86
2023-05-08T13:28:15.804Z,14.89
2023-05-08T13:29:17.942Z,14.88
2023-05-08T13:30:20.102Z,14.86
2023-05-08T13:31:22.125Z,14.85
2023-05-08T13:32:24.247Z,14.82
2023-05-08T13:33:26.651Z,14.81
2023-05-08T13:34:28.625Z,14.79
2023-05-08T13:35:30.876Z,14.77
2023-05-08T13:36:33.117Z,14.79
2023-05-08T13:37:35.190Z,14.76
2023-05-08T13:38:37.363Z,14.72
2023-05-08T13:39:39.367Z,14.70
2023-05-08T13:40:41.778Z,14.71
2023-05-08T13:41:44.051Z,14.74
2023-05-08T13:42:46.163Z,14.68
2023-05-08T13:43:48.217Z,14.63
2023-05-08T13:44:50.250Z,14.64
2023-05-08T13:45:52.288Z,14.57
2023-05-08T13:46:54.567Z,14.53
2023-05-08T13:47:56.897Z,14.55
2023-05-08T13:48:59.209Z,14.55
2023-05-08T13:50:07.723Z,14.59
2023-05-08T13:51:09.735Z,14.61
2023-05-08T13:52:11.736Z,14.56
2023-05-08T13:53:13.705Z,14.50
2023-05-08T13:54:16.087Z,14.53
2023-05-08T13:55:18.220Z,14.56
2023-05-08T13:56:20.499Z,14.62
2023-05-08T13:57:22.543Z,14.66
2023-05-08T13:58:24.354Z,14.72
2023-05-08T13:59:27.712Z,14.79
2023-05-08T14:00:29.866Z,14.86
2023-05-08T14:01:32.058Z,14.91
2023-05-08T14:02:34.526Z,14.98
2023-05-08T14:03:37.151Z,15.04
2023-05-08T14:04:41.704Z,15.01
2023-05-08T14:05:43.780Z,15.03
2023-05-08T14:06:45.822Z,15.02
2023-05-08T14:07:47.797Z,15.03
2023-05-08T14:08:52.784Z,14.98
2023-05-08T14:09:57.158Z,14.96
2023-05-08T14:10:59.440Z,14.95
2023-05-08T14:12:01.483Z,14.92
2023-05-08T14:13:03.621Z,14.89
2023-05-08T14:14:05.763Z,14.92
2023-05-08T14:15:11.779Z,14.91
2023-05-08T14:16:14.659Z,14.89
2023-05-08T14:17:17.491Z,14.89
2023-05-08T14:18:19.500Z,14.88
2023-05-08T14:19:21.855Z,14.89
2023-05-08T14:20:23.843Z,14.90
2023-05-08T14:21:25.973Z,14.92
2023-05-08T14:22:28.099Z,14.93
2023-05-08T14:23:30.299Z,14.93
2023-05-08T14:24:32.282Z,14.94
2023-05-08T14:25:34.415Z,14.94
2023-05-08T14:26:36.635Z,14.98
2023-05-08T14:27:38.971Z,15.00
2023-05-08T14:28:40.935Z,15.02
2023-05-08T14:29:42.861Z,14.98
2023-05-08T14:30:44.929Z,14.96
2023-05-08T14:31:46.905Z,14.93
2023-05-08T14:32:48.971Z,14.90
2023-05-08T14:33:51.416Z,14.87
2023-05-08T14:34:53.721Z,14.88
2023-05-08T14:35:55.861Z,14.81
2023-05-08T14:36:58.076Z,14.73
2023-05-08T14:38:00.379Z,14.74
2023-05-08T14:39:03.205Z,14.70
2023-05-08T14:40:08.169Z,14.71
2023-05-08T14:41:10.224Z,14.74
2023-05-08T14:43:16.903Z,14.77
2023-05-08T14:44:19.555Z,14.78
2023-05-08T14:45:22.159Z,14.79
2023-05-08T14:46:24.476Z,14.81
2023-05-08T14:47:27.658Z,14.78
2023-05-08T14:48:29.881Z,14.75
2023-05-08T14:49:38.020Z,14.79
2023-05-08T14:50:36.036Z,14.82
2023-05-08T14:51:38.341Z,14.81
2023-05-08T14:52:40.374Z,14.78
2023-05-08T14:53:42.411Z,14.75
2023-05-08T14:54:45.191Z,14.73
2023-05-08T14:55:48.083Z,14.72
2023-05-08T14:56:50.877Z,14.72
2023-05-08T14:57:53.180Z,14.69
2023-05-08T14:58:55.313Z,14.72
2023-05-08T14:59:57.312Z,14.74
2023-05-08T15:00:59.607Z,14.77
2023-05-08T15:02:01.730Z,14.76
2023-05-08T15:03:05.272Z,14.78
2023-05-08T15:04:07.724Z,14.79
2023-05-08T15:05:16.994Z,14.80
2023-05-08T15:06:14.327Z,14.78
2023-05-08T15:07:16.352Z,14.69
2023-05-08T15:08:18.450Z,14.63
2023-05-08T15:09:20.600Z,14.59
2023-05-08T15:10:24.834Z,14.59
2023-05-08T15:11:27.115Z,14.60
2023-05-08T15:12:29.122Z,14.60
2023-05-08T15:13:31.163Z,14.59
2023-05-08T15:14:33.475Z,14.57
2023-05-08T15:15:35.469Z,14.59
2023-05-08T15:16:37.685Z,14.60
2023-05-08T15:17:41.083Z,14.58
2023-05-08T15:18:43.236Z,14.58
2023-05-08T15:19:45.393Z,14.54
2023-05-08T15:20:49.849Z,14.51
2023-05-08T15:21:51.993Z,14.54
2023-05-08T15:22:54.232Z,14.52
2023-05-08T15:23:56.418Z,14.50
2023-05-08T15:24:58.520Z,14.51
